createdAt,value
2018-09-07T00:01:02.430Z,18.00
2018-09-07T00:03:29.839Z,17.90
2018-09-07T00:05:57.302Z,17.90
2018-09-07T00:08:25.186Z,17.90
2018-09-07T00:10:53.639Z,17.90
2018-09-07T00:13:21.058Z,17.80
2018-09-07T00:15:48.470Z,17.80
2018-09-07T00:18:16.307Z,17.70
2018-09-07T00:20:43.691Z,17.70
2018-09-07T00:25:19.154Z,17.60
2018-09-07T00:27:46.570Z,17.70
2018-09-07T00:30:14.174Z,17.70
2018-09-07T00:32:41.650Z,17.60
2018-09-07T00:35:09.050Z,17.60
2018-09-07T00:37:36.444Z,17.60
2018-09-07T00:40:03.863Z,17.60
2018-09-07T00:42:31.278Z,17.60
2018-09-07T00:44:58.666Z,17.60
2018-09-07T00:47:26.071Z,17.60
2018-09-07T00:49:53.461Z,17.50
2018-09-07T00:52:20.843Z,17.50
2018-09-07T00:54:48.238Z,17.40
2018-09-07T00:57:15.627Z,17.40
2018-09-07T00:59:43.026Z,17.40
2018-09-07T01:02:10.431Z,17.40
2018-09-07T01:04:37.847Z,17.40
2018-09-07T01:07:05.250Z,17.40
2018-09-07T01:09:32.638Z,17.40
2018-09-07T01:12:00.039Z,17.40
2018-09-07T01:14:27.459Z,17.40
2018-09-07T01:16:54.843Z,17.40
2018-09-07T01:19:22.339Z,17.40
2018-09-07T01:21:49.731Z,17.40
2018-09-07T01:24:17.130Z,17.40
2018-09-07T01:26:44.515Z,17.40
2018-09-07T01:29:11.912Z,17.30
2018-09-07T01:31:39.322Z,17.30
2018-09-07T01:34:06.710Z,17.30
2018-09-07T01:36:34.123Z,17.30
2018-09-07T01:39:01.515Z,17.30
2018-09-07T01:41:28.918Z,17.30
2018-09-07T01:43:56.314Z,17.30
2018-09-07T01:46:23.694Z,17.30
2018-09-07T01:48:51.079Z,17.30
2018-09-07T01:51:18.548Z,17.30
2018-09-07T01:53:45.947Z,17.30
2018-09-07T01:56:13.326Z,17.20
2018-09-07T01:58:44.167Z,17.20
2018-09-07T02:01:11.567Z,17.20
2018-09-07T02:03:38.946Z,17.20
2018-09-07T02:06:09.643Z,17.20
2018-09-07T02:08:40.178Z,17.20
2018-09-07T02:11:07.583Z,17.20
2018-09-07T02:13:34.999Z,17.20
2018-09-07T02:16:02.422Z,17.20
2018-09-07T02:18:29.831Z,17.10
2018-09-07T02:20:57.234Z,17.20
2018-09-07T02:23:24.630Z,17.20
2018-09-07T02:25:53.031Z,17.20
2018-09-07T02:28:20.487Z,17.20
2018-09-07T02:30:47.908Z,17.20
2018-09-07T02:33:15.307Z,17.20
2018-09-07T02:35:42.692Z,17.10
2018-09-07T02:38:13.449Z,17.10
2018-09-07T02:40:40.842Z,17.20
2018-09-07T02:43:08.232Z,17.20
2018-09-07T02:45:35.635Z,17.10
2018-09-07T02:48:06.350Z,17.10
2018-09-07T02:50:33.778Z,17.10
2018-09-07T02:53:01.186Z,17.10
2018-09-07T02:55:28.603Z,17.10
2018-09-07T02:57:56.015Z,17.10
2018-09-07T03:00:23.443Z,17.10
2018-09-07T03:02:50.846Z,17.10
2018-09-07T03:05:18.220Z,17.10
2018-09-07T03:07:45.611Z,17.10
2018-09-07T03:10:13.982Z,17.10
2018-09-07T03:12:41.363Z,17.10
2018-09-07T03:15:08.788Z,17.20
2018-09-07T03:17:36.187Z,17.20
2018-09-07T03:20:03.595Z,17.20
2018-09-07T03:22:31.003Z,17.10
2018-09-07T03:24:58.386Z,17.10
2018-09-07T03:27:25.767Z,17.10
2018-09-07T03:29:53.167Z,17.00
2018-09-07T03:32:20.572Z,17.00
2018-09-07T03:34:48.013Z,17.00
2018-09-07T03:37:15.446Z,17.00
2018-09-07T03:39:42.847Z,17.00
2018-09-07T03:42:10.240Z,17.10
2018-09-07T03:44:37.607Z,17.10
2018-09-07T03:47:05.320Z,17.10
2018-09-07T03:49:32.722Z,17.10
2018-09-07T03:52:00.111Z,17.10
2018-09-07T03:54:27.490Z,17.10
2018-09-07T03:56:54.921Z,17.20
2018-09-07T03:59:22.350Z,17.10
2018-09-07T04:01:49.726Z,17.20
2018-09-07T04:04:17.115Z,17.20
2018-09-07T04:06:47.723Z,17.20
2018-09-07T04:09:15.159Z,17.20
2018-09-07T04:11:42.552Z,17.10
2018-09-07T04:14:09.956Z,17.10
2018-09-07T04:16:40.440Z,17.10
2018-09-07T04:19:07.842Z,17.10
2018-09-07T04:21:35.231Z,17.10
2018-09-07T04:24:02.774Z,17.10
2018-09-07T04:26:30.147Z,17.10
2018-09-07T04:28:57.563Z,17.10
2018-09-07T04:31:24.967Z,17.20
2018-09-07T04:33:52.348Z,17.20
2018-09-07T04:36:19.739Z,17.20
2018-09-07T04:38:47.170Z,17.10
2018-09-07T04:41:14.638Z,17.10
2018-09-07T04:43:41.976Z,17.10
2018-09-07T04:46:09.371Z,17.10
2018-09-07T04:48:36.839Z,17.10
2018-09-07T04:51:04.266Z,17.00
2018-09-07T04:53:31.654Z,17.00
2018-09-07T04:55:59.043Z,17.00
2018-09-07T04:58:26.451Z,17.00
2018-09-07T05:00:53.847Z,16.90
2018-09-07T05:03:24.763Z,16.90
2018-09-07T05:05:52.171Z,16.90
2018-09-07T05:08:19.551Z,16.90
2018-09-07T05:10:46.938Z,16.90
2018-09-07T05:13:14.395Z,16.90
2018-09-07T05:15:41.787Z,16.90
2018-09-07T05:18:09.168Z,16.90
2018-09-07T05:20:36.567Z,16.90
2018-09-07T05:23:03.996Z,16.90
2018-09-07T05:25:31.387Z,16.90
2018-09-07T05:27:58.801Z,16.80
2018-09-07T05:30:26.415Z,16.80
2018-09-07T05:32:53.798Z,16.80
2018-09-07T05:35:21.211Z,16.70
2018-09-07T05:37:48.617Z,16.70
2018-09-07T05:40:16.131Z,16.60
2018-09-07T05:42:43.542Z,16.60
2018-09-07T05:45:10.935Z,16.60
2018-09-07T05:47:38.339Z,16.60
2018-09-07T05:50:05.770Z,16.60
2018-09-07T05:52:33.151Z,16.50
2018-09-07T05:55:00.554Z,16.50
2018-09-07T05:57:27.945Z,16.60
2018-09-07T05:59:55.335Z,16.60
2018-09-07T06:02:22.754Z,16.60
2018-09-07T06:04:50.166Z,16.70
2018-09-07T06:07:17.559Z,16.70
2018-09-07T06:09:44.939Z,16.70
2018-09-07T06:12:12.339Z,16.80
2018-09-07T06:14:39.743Z,16.80
2018-09-07T06:17:07.142Z,16.70
2018-09-07T06:19:34.532Z,16.70
2018-09-07T06:22:01.943Z,16.70
2018-09-07T06:24:29.334Z,16.70
2018-09-07T06:26:56.731Z,16.70
2018-09-07T06:29:24.450Z,16.70
2018-09-07T06:31:51.853Z,16.70
2018-09-07T06:34:19.247Z,16.70
2018-09-07T06:36:46.737Z,16.80
2018-09-07T06:39:14.215Z,16.80
2018-09-07T06:41:41.490Z,16.90
2018-09-07T06:44:08.916Z,16.90
2018-09-07T06:46:36.272Z,16.90
2018-09-07T06:49:07.210Z,16.90
2018-09-07T06:51:34.632Z,17.00
2018-09-07T06:54:02.015Z,17.00
2018-09-07T06:56:31.471Z,17.20
2018-09-07T06:58:58.939Z,17.20
2018-09-07T07:01:26.327Z,17.20
2018-09-07T07:03:53.727Z,17.20
2018-09-07T07:06:21.122Z,17.20
2018-09-07T07:08:48.535Z,17.30
2018-09-07T07:11:15.938Z,17.30
2018-09-07T07:13:43.311Z,17.30
2018-09-07T07:16:10.691Z,17.30
2018-09-07T07:18:38.190Z,17.40
2018-09-07T07:21:05.578Z,17.40
2018-09-07T07:23:32.975Z,17.40
2018-09-07T07:26:00.367Z,17.40
2018-09-07T07:28:27.747Z,17.40
2018-09-07T07:30:55.130Z,17.50
2018-09-07T07:33:22.514Z,17.50
2018-09-07T07:35:49.895Z,17.50
2018-09-07T07:38:17.292Z,17.50
2018-09-07T07:40:44.679Z,17.50
2018-09-07T07:43:12.055Z,17.50
2018-09-07T07:45:39.463Z,17.60
2018-09-07T07:48:06.999Z,17.70
2018-09-07T07:50:34.243Z,17.80
2018-09-07T07:53:01.643Z,17.90
2018-09-07T07:55:29.019Z,18.00
2018-09-07T07:57:56.408Z,18.00
2018-09-07T08:07:22.591Z,18.20
2018-09-07T08:09:50.044Z,18.30
2018-09-07T08:12:17.420Z,18.30
2018-09-07T08:14:44.811Z,18.40
2018-09-07T08:17:12.203Z,18.60
2018-09-07T08:19:39.611Z,18.60
2018-09-07T08:22:07.013Z,18.60
2018-09-07T08:24:34.422Z,18.70
2018-09-07T08:27:05.539Z,18.80
2018-09-07T08:29:32.943Z,18.90
2018-09-07T08:32:00.347Z,18.80
2018-09-07T08:34:27.727Z,18.80
2018-09-07T08:36:55.119Z,18.70
2018-09-07T08:39:22.523Z,18.60
2018-09-07T08:41:50.131Z,18.60
2018-09-07T08:44:21.124Z,18.60
2018-09-07T08:46:48.792Z,18.60
2018-09-07T08:49:16.540Z,18.70
2018-09-07T08:51:44.234Z,18.90
2018-09-07T08:54:11.983Z,19.10
2018-09-07T08:56:40.746Z,19.30
2018-09-07T08:59:08.496Z,19.50
2018-09-07T09:01:36.254Z,19.50
2018-09-07T09:04:04.273Z,19.70
2018-09-07T09:06:31.989Z,19.90
2018-09-07T09:08:59.708Z,19.90
2018-09-07T09:11:27.373Z,19.80
2018-09-07T09:13:55.097Z,19.80
2018-09-07T09:16:22.748Z,19.80
2018-09-07T09:18:50.428Z,20.10
2018-09-07T09:21:18.227Z,20.30
2018-09-07T09:23:46.272Z,20.30
2018-09-07T09:26:13.851Z,20.40
2018-09-07T09:28:41.616Z,20.40
2018-09-07T09:31:09.335Z,20.40
2018-09-07T09:33:37.044Z,20.40
2018-09-07T09:36:04.780Z,20.50
2018-09-07T09:38:36.108Z,20.60
2018-09-07T09:41:03.812Z,20.70
2018-09-07T09:43:31.511Z,20.70
2018-09-07T09:45:59.348Z,20.60
2018-09-07T09:48:27.087Z,20.50
2018-09-07T09:50:54.820Z,20.50
2018-09-07T09:53:22.479Z,20.60
2018-09-07T09:55:50.317Z,20.70
2018-09-07T09:58:18.013Z,20.70
2018-09-07T10:00:51.288Z,20.60
2018-09-07T10:03:23.511Z,20.50
2018-09-07T10:05:51.248Z,20.60
2018-09-07T10:08:18.932Z,20.50
2018-09-07T10:10:46.860Z,20.70
2018-09-07T10:13:14.623Z,20.60
2018-09-07T10:15:42.312Z,20.60
2018-09-07T10:18:10.331Z,20.60
2018-09-07T10:20:38.044Z,20.50
2018-09-07T10:23:05.851Z,20.50
2018-09-07T10:25:33.623Z,20.40
2018-09-07T10:28:01.280Z,20.30
2018-09-07T10:30:29.044Z,20.20
2018-09-07T10:32:56.871Z,20.10
2018-09-07T10:35:24.606Z,20.20
2018-09-07T10:37:52.345Z,20.30
2018-09-07T10:40:20.088Z,20.40
2018-09-07T10:42:47.827Z,20.60
2018-09-07T10:45:15.577Z,20.80
2018-09-07T10:47:43.311Z,20.80
2018-09-07T10:50:11.080Z,21.00
2018-09-07T10:52:38.857Z,21.30
2018-09-07T10:55:06.612Z,21.50
2018-09-07T10:57:34.337Z,21.50
2018-09-07T11:00:02.120Z,21.60
2018-09-07T11:02:29.887Z,21.70
2018-09-07T11:04:57.767Z,21.70
2018-09-07T11:07:25.491Z,21.80
2018-09-07T11:09:53.185Z,21.80
2018-09-07T11:12:20.981Z,21.70
2018-09-07T11:14:48.715Z,21.50
2018-09-07T11:17:16.407Z,21.20
2018-09-07T11:19:47.128Z,21.20
2018-09-07T11:22:14.828Z,21.20
2018-09-07T11:24:42.500Z,21.50
2018-09-07T11:27:10.229Z,21.60
2018-09-07T11:29:37.981Z,21.70
2018-09-07T11:32:05.730Z,21.80
2018-09-07T11:34:33.440Z,21.70
2018-09-07T11:37:01.269Z,21.50
2018-09-07T11:39:28.995Z,21.40
2018-09-07T11:41:56.900Z,21.60
2018-09-07T11:44:24.783Z,21.70
2018-09-07T11:46:52.484Z,21.80
2018-09-07T11:49:20.190Z,21.70
2018-09-07T11:51:47.876Z,21.60
2018-09-07T11:54:15.837Z,21.80
2018-09-07T11:56:43.615Z,21.80
2018-09-07T11:59:11.348Z,21.70
2018-09-07T12:01:39.054Z,21.80
2018-09-07T12:04:06.838Z,21.80
2018-09-07T12:06:34.556Z,21.80
2018-09-07T12:09:02.375Z,22.10
2018-09-07T12:11:30.020Z,22.10
2018-09-07T12:13:57.800Z,21.90
2018-09-07T12:16:25.690Z,22.10
2018-09-07T12:18:53.429Z,22.20
2018-09-07T12:21:21.162Z,22.20
2018-09-07T12:23:48.970Z,22.70
2018-09-07T12:26:16.607Z,23.20
2018-09-07T12:28:44.425Z,23.40
2018-09-07T12:31:13.591Z,23.10
2018-09-07T12:33:41.436Z,22.80
2018-09-07T12:36:09.195Z,22.90
2018-09-07T12:38:36.955Z,22.70
2018-09-07T12:41:05.128Z,22.50
2018-09-07T12:43:33.108Z,22.10
2018-09-07T12:46:05.004Z,21.80
2018-09-07T12:48:32.881Z,21.60
2018-09-07T12:51:00.585Z,21.40
2018-09-07T12:53:28.438Z,21.30
2018-09-07T12:55:56.191Z,21.20
2018-09-07T12:58:23.864Z,21.20
2018-09-07T13:00:51.572Z,21.10
2018-09-07T13:03:19.227Z,21.10
2018-09-07T13:05:47.000Z,21.10
2018-09-07T13:08:16.004Z,21.20
2018-09-07T13:10:43.661Z,21.20
2018-09-07T13:13:11.652Z,21.20
2018-09-07T13:15:39.333Z,21.20
2018-09-07T13:18:07.479Z,21.30
2018-09-07T13:20:35.836Z,21.50
2018-09-07T13:23:03.621Z,21.60
2018-09-07T13:25:31.308Z,21.60
2018-09-07T13:27:59.104Z,21.70
2018-09-07T13:30:27.275Z,21.90
2018-09-07T13:32:55.125Z,21.80
2018-09-07T13:35:22.831Z,21.50
2018-09-07T13:37:50.637Z,21.20
2018-09-07T13:40:18.474Z,21.10
2018-09-07T13:42:46.265Z,20.80
2018-09-07T13:45:14.011Z,20.80
2018-09-07T13:47:41.768Z,20.80
2018-09-07T13:50:09.759Z,20.90
2018-09-07T13:52:37.440Z,20.90
2018-09-07T13:55:05.459Z,21.00
2018-09-07T13:57:33.230Z,20.90
2018-09-07T14:00:01.156Z,20.80
2018-09-07T14:02:29.180Z,20.70
2018-09-07T14:04:56.916Z,20.60
2018-09-07T14:07:24.640Z,20.60
2018-09-07T14:09:52.420Z,20.60
2018-09-07T14:12:20.153Z,20.60
2018-09-07T14:14:47.907Z,20.60
2018-09-07T14:17:15.590Z,21.30
2018-09-07T14:19:43.336Z,21.20
2018-09-07T14:22:11.065Z,21.60
2018-09-07T14:24:38.763Z,22.30
2018-09-07T14:27:06.479Z,22.20
2018-09-07T14:29:34.192Z,22.20
2018-09-07T14:32:01.971Z,21.90
2018-09-07T14:34:29.697Z,22.10
2018-09-07T14:36:57.440Z,22.70
2018-09-07T14:39:25.150Z,22.70
2018-09-07T14:41:52.864Z,22.80
2018-09-07T14:44:20.604Z,22.90
2018-09-07T14:46:48.348Z,22.30
2018-09-07T14:49:16.149Z,22.00
2018-09-07T14:51:43.892Z,22.60
2018-09-07T14:54:11.663Z,22.50
2018-09-07T14:56:39.383Z,22.50
2018-09-07T14:59:07.328Z,22.70
2018-09-07T15:01:35.032Z,22.50
2018-09-07T15:04:02.775Z,22.20
2018-09-07T15:06:30.530Z,21.90
2018-09-07T15:08:58.321Z,21.60
2018-09-07T15:11:29.409Z,21.40
2018-09-07T15:13:57.147Z,21.40
2018-09-07T15:16:24.889Z,21.20
2018-09-07T15:18:52.604Z,21.10
2018-09-07T15:21:20.316Z,20.90
2018-09-07T15:23:48.043Z,20.90
2018-09-07T15:26:15.746Z,20.90
2018-09-07T15:28:43.651Z,20.90
2018-09-07T15:31:11.396Z,20.80
2018-09-07T15:33:39.173Z,20.80
2018-09-07T15:36:06.920Z,20.70
2018-09-07T15:38:34.604Z,20.70
2018-09-07T15:41:02.447Z,20.70
2018-09-07T15:43:30.192Z,20.60
2018-09-07T15:45:57.895Z,20.50
2018-09-07T15:48:25.840Z,20.50
2018-09-07T15:50:53.602Z,20.40
2018-09-07T15:53:21.488Z,20.30
2018-09-07T15:55:49.168Z,20.30
2018-09-07T15:58:16.855Z,20.20
2018-09-07T16:00:44.573Z,20.20
2018-09-07T16:03:15.740Z,20.30
2018-09-07T16:05:43.437Z,20.20
2018-09-07T16:08:11.252Z,20.10
2018-09-07T16:10:38.955Z,20.10
2018-09-07T16:13:06.698Z,20.00
2018-09-07T16:15:34.515Z,19.80
2018-09-07T16:18:06.040Z,19.80
2018-09-07T16:20:33.792Z,19.70
2018-09-07T16:23:01.552Z,19.70
2018-09-07T16:25:29.301Z,19.60
2018-09-07T16:27:57.063Z,19.60
2018-09-07T16:30:24.784Z,19.50
2018-09-07T16:32:52.508Z,19.50
2018-09-07T16:35:20.280Z,19.50
2018-09-07T16:37:48.003Z,19.30
2018-09-07T16:40:15.791Z,19.30
2018-09-07T16:42:43.538Z,19.20
2018-09-07T16:45:11.309Z,19.20
2018-09-07T16:47:38.956Z,19.10
2018-09-07T16:50:06.827Z,19.10
2018-09-07T16:52:34.544Z,19.00
2018-09-07T16:55:05.702Z,19.00
2018-09-07T16:57:33.443Z,18.90
2018-09-07T17:00:01.165Z,18.80
2018-09-07T17:02:28.965Z,18.80
2018-09-07T17:04:56.647Z,18.70
2018-09-07T17:07:24.320Z,18.70
2018-09-07T17:09:52.083Z,18.70
2018-09-07T17:12:19.848Z,18.60
2018-09-07T17:14:47.567Z,18.60
2018-09-07T17:17:15.388Z,18.50
2018-09-07T17:19:43.083Z,18.50
2018-09-07T17:22:10.864Z,18.50
2018-09-07T17:24:38.612Z,18.50
2018-09-07T17:27:06.669Z,18.40
2018-09-07T17:29:34.396Z,18.40
2018-09-07T17:32:02.182Z,18.40
2018-09-07T17:34:29.920Z,18.40
2018-09-07T17:36:57.629Z,18.30
2018-09-07T17:39:25.302Z,18.20
2018-09-07T17:41:52.986Z,18.20
2018-09-07T17:44:20.716Z,18.20
2018-09-07T17:46:48.471Z,18.10
2018-09-07T17:49:16.248Z,18.10
2018-09-07T17:51:44.018Z,18.00
2018-09-07T17:54:11.755Z,18.00
2018-09-07T17:56:39.440Z,18.00
2018-09-07T17:59:07.166Z,18.00
2018-09-07T18:01:34.870Z,18.00
2018-09-07T18:04:02.623Z,18.00
2018-09-07T18:06:30.464Z,18.00
2018-09-07T18:08:58.135Z,17.90
2018-09-07T18:11:25.865Z,17.90
2018-09-07T18:13:53.580Z,17.90
2018-09-07T18:16:21.456Z,17.90
2018-09-07T18:18:49.096Z,17.80
2018-09-07T18:21:16.809Z,17.80
2018-09-07T18:23:44.477Z,17.80
2018-09-07T18:26:12.285Z,17.80
2018-09-07T18:28:40.333Z,17.80
2018-09-07T18:31:08.885Z,17.70
2018-09-07T18:33:36.590Z,17.70
2018-09-07T18:36:04.656Z,17.70
2018-09-07T18:38:31.992Z,17.70
2018-09-07T18:40:59.772Z,17.70
2018-09-07T18:43:27.557Z,17.70
2018-09-07T18:45:55.346Z,17.60
2018-09-07T18:48:23.224Z,17.50
2018-09-07T18:50:50.928Z,17.50
2018-09-07T18:53:18.692Z,17.50
2018-09-07T18:55:46.457Z,17.50
2018-09-07T18:58:14.217Z,17.50
2018-09-07T19:00:42.420Z,17.50
2018-09-07T19:03:10.174Z,17.50
2018-09-07T19:05:37.935Z,17.40
2018-09-07T19:08:06.063Z,17.40
2018-09-07T19:10:34.221Z,17.40
2018-09-07T19:13:02.216Z,17.40
2018-09-07T19:15:30.189Z,17.40
2018-09-07T19:17:59.077Z,17.30
2018-09-07T19:20:28.585Z,17.30
2018-09-07T19:22:57.856Z,17.30
2018-09-07T19:25:26.535Z,17.30
2018-09-07T19:27:55.680Z,17.20
2018-09-07T19:30:24.494Z,17.20
2018-09-07T19:32:53.575Z,17.20
2018-09-07T19:35:23.265Z,17.10
2018-09-07T19:37:53.207Z,17.10
2018-09-07T19:40:23.028Z,17.00
2018-09-07T19:42:52.949Z,17.00
2018-09-07T19:45:23.189Z,17.00
2018-09-07T19:47:52.633Z,17.00
2018-09-07T19:50:22.624Z,16.90
2018-09-07T19:52:52.478Z,16.80
2018-09-07T19:55:22.132Z,16.70
2018-09-07T19:57:52.246Z,16.70
2018-09-07T20:00:22.294Z,16.60
2018-09-07T20:02:52.429Z,16.50
2018-09-07T20:05:22.717Z,16.40
2018-09-07T20:07:52.481Z,16.30
2018-09-07T20:10:22.534Z,16.30
2018-09-07T20:12:51.642Z,16.20
2018-09-07T20:15:20.608Z,16.10
2018-09-07T20:17:49.777Z,16.00
2018-09-07T20:20:18.284Z,16.00
2018-09-07T20:22:47.149Z,16.00
2018-09-07T20:25:15.923Z,15.90
2018-09-07T20:27:44.193Z,15.90
2018-09-07T20:30:12.810Z,15.80
2018-09-07T20:32:40.780Z,15.80
2018-09-07T20:35:08.867Z,15.80
2018-09-07T20:37:36.625Z,15.70
2018-09-07T20:40:04.422Z,15.60
2018-09-07T20:42:35.465Z,15.50
2018-09-07T20:45:03.260Z,15.50
2018-09-07T20:47:34.790Z,15.40
2018-09-07T20:50:02.544Z,15.40
2018-09-07T20:52:30.235Z,15.30
2018-09-07T20:54:57.964Z,15.40
2018-09-07T20:57:25.777Z,15.30
2018-09-07T20:59:53.415Z,15.30
2018-09-07T21:02:21.188Z,15.20
2018-09-07T21:04:48.864Z,15.10
2018-09-07T21:07:16.607Z,15.10
2018-09-07T21:09:44.329Z,15.00
2018-09-07T21:12:12.027Z,15.10
2018-09-07T21:14:39.768Z,15.00
2018-09-07T21:17:07.634Z,15.10
2018-09-07T21:19:35.343Z,15.10
2018-09-07T21:22:03.069Z,15.10
2018-09-07T21:24:30.772Z,15.00
2018-09-07T21:26:58.522Z,15.00
2018-09-07T21:29:26.228Z,15.00
2018-09-07T21:31:57.707Z,15.00
2018-09-07T21:34:25.471Z,15.00
2018-09-07T21:36:53.251Z,14.90
2018-09-07T21:39:20.958Z,14.80
2018-09-07T21:41:48.792Z,14.70
2018-09-07T21:44:16.574Z,14.60
2018-09-07T21:46:44.289Z,14.60
2018-09-07T21:49:12.050Z,14.50
2018-09-07T21:51:39.730Z,14.40
2018-09-07T21:54:07.443Z,14.30
2018-09-07T21:56:35.298Z,14.20
2018-09-07T21:59:03.131Z,14.20
2018-09-07T22:01:30.908Z,14.10
2018-09-07T22:03:58.760Z,14.10
2018-09-07T22:06:26.500Z,14.00
2018-09-07T22:08:54.224Z,14.00
2018-09-07T22:11:21.945Z,13.90
2018-09-07T22:13:49.588Z,13.80
2018-09-07T22:16:17.271Z,13.80
2018-09-07T22:18:45.017Z,13.70
2018-09-07T22:21:12.796Z,13.70
2018-09-07T22:23:40.579Z,13.70
2018-09-07T22:26:08.356Z,13.80
2018-09-07T22:28:36.049Z,13.70
2018-09-07T22:31:03.766Z,13.60
2018-09-07T22:33:31.536Z,13.50
2018-09-07T22:35:59.705Z,13.60
2018-09-07T22:38:27.425Z,13.60
2018-09-07T22:40:55.143Z,13.60
2018-09-07T22:43:22.803Z,13.60
2018-09-07T22:45:50.584Z,13.60
2018-09-07T22:48:18.352Z,13.50
2018-09-07T22:50:46.105Z,13.50
2018-09-07T22:53:13.886Z,13.50
2018-09-07T22:55:41.618Z,13.50
2018-09-07T22:58:09.319Z,13.40
2018-09-07T23:00:37.220Z,13.40
2018-09-07T23:03:04.995Z,13.50
2018-09-07T23:05:32.712Z,13.40
2018-09-07T23:08:00.391Z,13.40
2018-09-07T23:10:28.128Z,13.40
2018-09-07T23:12:55.850Z,13.30
2018-09-07T23:15:23.623Z,13.20
2018-09-07T23:17:51.384Z,13.30
2018-09-07T23:20:19.115Z,13.30
2018-09-07T23:22:46.886Z,13.30
2018-09-07T23:25:14.571Z,13.20
2018-09-07T23:27:42.315Z,13.20
2018-09-07T23:30:10.771Z,13.20
2018-09-07T23:32:38.767Z,13.10
2018-09-07T23:35:06.532Z,13.10
2018-09-07T23:37:34.291Z,13.10
2018-09-07T23:40:02.076Z,13.00
2018-09-07T23:42:29.929Z,13.00
2018-09-07T23:44:57.640Z,13.00
2018-09-07T23:47:25.436Z,12.90
2018-09-07T23:49:53.140Z,12.90
2018-09-07T23:52:20.879Z,12.80
2018-09-07T23:54:48.667Z,12.70
2018-09-07T23:57:16.408Z,12.70
2018-09-07T23:59:44.152Z,12.60
